sensor_id;sensor_type;location;lat;lon;timestamp;pressure;altitude;pressure_sealevel;temperature;humidity
7614;BME280;3848;42.016;23.098;2023-04-30T00:00:57;96823.97;;;12.99;100.00
7614;BME280;3848;42.016;23.098;2023-04-30T00:03:25;96826.47;;;13.02;100.00
7614;BME280;3848;42.016;23.098;2023-04-30T00:05:52;96820.34;;;13.09;100.00
7614;BME280;3848;42.016;23.098;2023-04-30T00:08:18;96806.13;;;12.99;100.00
7614;BME280;3848;42.016;23.098;2023-04-30T00:10:45;96819.56;;;13.05;100.00
7614;BME280;3848;42.016;23.098;2023-04-30T00:13:12;96823.03;;;13.03;100.00
7614;BME280;3848;42.016;23.098;2023-04-30T00:15:39;96826.47;;;13.02;100.00
7614;BME280;3848;42.016;23.098;2023-04-30T00:18:06;96826.56;;;12.97;100.00
7614;BME280;3848;42.016;23.098;2023-04-30T00:20:34;96826.50;;;13.00;100.00
7614;BME280;3848;42.016;23.098;2023-04-30T00:23:01;96826.47;;;13.02;100.00
7614;BME280;3848;42.016;23.098;2023-04-30T00:25:28;96823.09;;;13.00;100.00
7614;BME280;3848;42.016;23.098;2023-04-30T00:27:54;96827.38;;;12.99;100.00
7614;BME280;3848;42.016;23.098;2023-04-30T00:30:21;96830.84;;;12.97;100.00
7614;BME280;3848;42.016;23.098;2023-04-30T00:32:48;96829.19;;;12.94;100.00
7614;BME280;3848;42.016;23.098;2023-04-30T00:35:15;96841.16;;;12.91;100.00
7614;BME280;3848;42.016;23.098;2023-04-30T00:37:43;96825.25;;;12.79;100.00
7614;BME280;3848;42.016;23.098;2023-04-30T00:40:11;96780.72;;;12.57;100.00
7614;BME280;3848;42.016;23.098;2023-04-30T00:42:37;96833.53;;;12.89;100.00
7614;BME280;3848;42.016;23.098;2023-04-30T00:45:05;96831.09;;;12.85;100.00
7614;BME280;3848;42.016;23.098;2023-04-30T00:47:33;96789.97;;;12.61;100.00
7614;BME280;3848;42.016;23.098;2023-04-30T00:50:00;96833.72;;;12.81;100.00
7614;BME280;3848;42.016;23.098;2023-04-30T00:52:27;96838.22;;;12.70;100.00
7614;BME280;3848;42.016;23.098;2023-04-30T00:54:55;96828.97;;;12.65;100.00
7614;BME280;3848;42.016;23.098;2023-04-30T00:57:22;96841.69;;;12.66;100.00
7614;BME280;3848;42.016;23.098;2023-04-30T00:59:50;96823.16;;;12.58;100.00
7614;BME280;3848;42.016;23.098;2023-04-30T01:02:17;96836.72;;;12.60;100.00
7614;BME280;3848;42.016;23.098;2023-04-30T01:04:45;96834.13;;;12.62;100.00
7614;BME280;3848;42.016;23.098;2023-04-30T01:07:12;96835.00;;;12.61;100.00
7614;BME280;3848;42.016;23.098;2023-04-30T01:09:39;96837.63;;;12.58;100.00
7614;BME280;3848;42.016;23.098;2023-04-30T01:12:12;96836.78;;;12.57;100.00
7614;BME280;3848;42.016;23.098;2023-04-30T01:14:52;96835.28;;;12.47;100.00
7614;BME280;3848;42.016;23.098;2023-04-30T01:17:28;96825.09;;;12.47;100.00
7614;BME280;3848;42.016;23.098;2023-04-30T01:19:58;96831.88;;;12.48;100.00
7614;BME280;3848;42.016;23.098;2023-04-30T01:22:35;96827.66;;;12.45;100.00
7614;BME280;3848;42.016;23.098;2023-04-30T01:25:43;96830.19;;;12.47;100.00
7614;BME280;3848;42.016;23.098;2023-04-30T01:28:14;96823.34;;;12.49;100.00
7614;BME280;3848;42.016;23.098;2023-04-30T01:30:41;96821.66;;;12.48;100.00
7614;BME280;3848;42.016;23.098;2023-04-30T01:33:10;96773.84;;;12.20;100.00
7614;BME280;3848;42.016;23.098;2023-04-30T01:35:56;96814.16;;;12.42;100.00
7614;BME280;3848;42.016;23.098;2023-04-30T01:38:34;96818.38;;;12.43;100.00
7614;BME280;3848;42.016;23.098;2023-04-30T01:41:09;96814.22;;;12.39;100.00
7614;BME280;3848;42.016;23.098;2023-04-30T01:43:47;96816.75;;;12.40;100.00
7614;BME280;3848;42.016;23.098;2023-04-30T01:46:20;96819.25;;;12.42;100.00
7614;BME280;3848;42.016;23.098;2023-04-30T01:48:55;96816.75;;;12.40;100.00
7614;BME280;3848;42.016;23.098;2023-04-30T01:51:30;96803.41;;;12.28;100.00
7614;BME280;3848;42.016;23.098;2023-04-30T01:54:02;96812.72;;;12.30;100.00
7614;BME280;3848;42.016;23.098;2023-04-30T01:56:36;96813.66;;;12.25;100.00
7614;BME280;3848;42.016;23.098;2023-04-30T01:59:07;96812.88;;;12.21;100.00
7614;BME280;3848;42.016;23.098;2023-04-30T02:01:35;96796.97;;;12.10;100.00
7614;BME280;3848;42.016;23.098;2023-04-30T02:04:02;96801.13;;;12.15;100.00
7614;BME280;3848;42.016;23.098;2023-04-30T02:06:29;96815.47;;;12.19;100.00
7614;BME280;3848;42.016;23.098;2023-04-30T02:08:56;96810.34;;;12.21;100.00
7614;BME280;3848;42.016;23.098;2023-04-30T02:11:27;96808.69;;;12.18;100.00
7614;BME280;3848;42.016;23.098;2023-04-30T02:13:54;96812.94;;;12.18;100.00
7614;BME280;3848;42.016;23.098;2023-04-30T02:16:22;96815.56;;;12.15;100.00
7614;BME280;3848;42.016;23.098;2023-04-30T02:18:49;96811.28;;;12.17;100.00
7614;BME280;3848;42.016;23.098;2023-04-30T02:21:16;96813.78;;;12.18;100.00
7614;BME280;3848;42.016;23.098;2023-04-30T02:23:42;96803.59;;;12.18;100.00
7614;BME280;3848;42.016;23.098;2023-04-30T02:26:09;96811.25;;;12.18;100.00
7614;BME280;3848;42.016;23.098;2023-04-30T02:28:36;96820.56;;;12.19;100.00
7614;BME280;3848;42.016;23.098;2023-04-30T02:31:03;96819.03;;;12.11;100.00
7614;BME280;3848;42.016;23.098;2023-04-30T02:33:31;96815.75;;;12.04;100.00
7614;BME280;3848;42.016;23.098;2023-04-30T02:35:59;96815.78;;;12.03;100.00
7614;BME280;3848;42.016;23.098;2023-04-30T02:38:25;96816.66;;;12.02;100.00
7614;BME280;3848;42.016;23.098;2023-04-30T02:40:52;96813.34;;;11.97;100.00
7614;BME280;3848;42.016;23.098;2023-04-30T02:43:19;96810.97;;;11.89;100.00
7614;BME280;3848;42.016;23.098;2023-04-30T02:45:46;96806.84;;;11.82;100.00
7614;BME280;3848;42.016;23.098;2023-04-30T02:48:13;96816.91;;;11.89;100.00
7614;BME280;3848;42.016;23.098;2023-04-30T02:50:41;96825.53;;;11.79;100.00
7614;BME280;3848;42.016;23.098;2023-04-30T02:53:08;96821.34;;;11.75;100.00
7614;BME280;3848;42.016;23.098;2023-04-30T02:55:34;96824.03;;;11.68;100.00
7614;BME280;3848;42.016;23.098;2023-04-30T02:58:01;96828.47;;;11.56;100.00
7614;BME280;3848;42.016;23.098;2023-04-30T03:00:28;96822.66;;;11.50;100.00
7614;BME280;3848;42.016;23.098;2023-04-30T03:02:55;96826.94;;;11.46;100.00
7614;BME280;3848;42.016;23.098;2023-04-30T03:05:22;96827.81;;;11.45;100.00
7614;BME280;3848;42.016;23.098;2023-04-30T03:07:50;96826.28;;;11.35;100.00
7614;BME280;3848;42.016;23.098;2023-04-30T03:10:17;96823.88;;;11.26;100.00
7614;BME280;3848;42.016;23.098;2023-04-30T03:12:44;96827.31;;;11.22;100.00
7614;BME280;3848;42.016;23.098;2023-04-30T03:15:11;96824.06;;;11.14;100.00
7614;BME280;3848;42.016;23.098;2023-04-30T03:17:37;96839.47;;;11.05;100.00
7614;BME280;3848;42.016;23.098;2023-04-30T03:20:05;96841.16;;;11.03;100.00
7614;BME280;3848;42.016;23.098;2023-04-30T03:22:32;96841.22;;;10.99;100.00
7614;BME280;3848;42.016;23.098;2023-04-30T03:25:00;96840.53;;;10.90;100.00
7614;BME280;3848;42.016;23.098;2023-04-30T03:27:27;96839.78;;;10.83;100.00
7614;BME280;3848;42.016;23.098;2023-04-30T03:29:54;96843.19;;;10.79;100.00
7614;BME280;3848;42.016;23.098;2023-04-30T03:32:21;96851.69;;;10.77;100.00
7614;BME280;3848;42.016;23.098;2023-04-30T03:34:47;96845.00;;;10.71;100.00
7614;BME280;3848;42.016;23.098;2023-04-30T03:37:15;96852.63;;;10.71;100.00
7614;BME280;3848;42.016;23.098;2023-04-30T03:39:41;96850.13;;;10.68;100.00
7614;BME280;3848;42.016;23.098;2023-04-30T03:42:10;96856.03;;;10.70;100.00
7614;BME280;3848;42.016;23.098;2023-04-30T03:44:36;96845.09;;;10.65;100.00
7614;BME280;3848;42.016;23.098;2023-04-30T03:47:03;96856.91;;;10.67;100.00
7614;BME280;3848;42.016;23.098;2023-04-30T03:49:30;96855.22;;;10.68;100.00
7614;BME280;3848;42.016;23.098;2023-04-30T03:51:57;96854.41;;;10.64;100.00
7614;BME280;3848;42.016;23.098;2023-04-30T03:54:23;96853.59;;;10.64;100.00
7614;BME280;3848;42.016;23.098;2023-04-30T03:56:50;96859.50;;;10.64;100.00
7614;BME280;3848;42.016;23.098;2023-04-30T03:59:18;96873.84;;;10.68;100.00
7614;BME280;3848;42.016;23.098;2023-04-30T04:01:45;96878.03;;;10.71;100.00
7614;BME280;3848;42.016;23.098;2023-04-30T04:04:12;96867.75;;;10.80;100.00
7614;BME280;3848;42.016;23.098;2023-04-30T04:06:39;96861.78;;;10.84;100.00
7614;BME280;3848;42.016;23.098;2023-04-30T04:09:06;96865.06;;;10.91;100.00
7614;BME280;3848;42.016;23.098;2023-04-30T04:11:32;96866.63;;;10.99;100.00
7614;BME280;3848;42.016;23.098;2023-04-30T04:13:59;96874.19;;;11.06;100.00
7614;BME280;3848;42.016;23.098;2023-04-30T04:16:27;96879.22;;;11.10;100.00
7614;BME280;3848;42.016;23.098;2023-04-30T04:18:54;96882.53;;;11.14;100.00
7614;BME280;3848;42.016;23.098;2023-04-30T04:21:21;96882.53;;;11.15;100.00
7614;BME280;3848;42.016;23.098;2023-04-30T04:23:48;96895.13;;;11.23;100.00
7614;BME280;3848;42.016;23.098;2023-04-30T04:26:14;96886.66;;;11.21;100.00
7614;BME280;3848;42.016;23.098;2023-04-30T04:28:44;96896.72;;;11.32;100.00
7614;BME280;3848;42.016;23.098;2023-04-30T04:31:10;96893.16;;;11.40;100.00
7614;BME280;3848;42.016;23.098;2023-04-30T04:33:38;96893.09;;;11.45;100.00
7614;BME280;3848;42.016;23.098;2023-04-30T04:36:06;96894.75;;;11.49;100.00
7614;BME280;3848;42.016;23.098;2023-04-30T04:38:32;96895.53;;;11.52;100.00
7614;BME280;3848;42.016;23.098;2023-04-30T04:40:59;96897.16;;;11.56;100.00
7614;BME280;3848;42.016;23.098;2023-04-30T04:43:26;96903.00;;;11.63;100.00
7614;BME280;3848;42.016;23.098;2023-04-30T04:45:53;96865.16;;;11.42;100.00
7614;BME280;3848;42.016;23.098;2023-04-30T04:48:19;96902.97;;;11.66;100.00
7614;BME280;3848;42.016;23.098;2023-04-30T04:50:48;96913.13;;;11.68;100.00
7614;BME280;3848;42.016;23.098;2023-04-30T04:53:14;96909.72;;;11.69;100.00
7614;BME280;3848;42.016;23.098;2023-04-30T04:55:41;96915.66;;;11.68;100.00
7614;BME280;3848;42.016;23.098;2023-04-30T04:58:08;96918.16;;;11.71;100.00
7614;BME280;3848;42.016;23.098;2023-04-30T05:00:35;96922.41;;;11.70;100.00
7614;BME280;3848;42.016;23.098;2023-04-30T05:03:02;96913.06;;;11.71;100.00
7614;BME280;3848;42.016;23.098;2023-04-30T05:05:28;96911.41;;;11.68;100.00
7614;BME280;3848;42.016;23.098;2023-04-30T05:07:56;96907.19;;;11.66;100.00
7614;BME280;3848;42.016;23.098;2023-04-30T05:10:23;96913.94;;;11.70;100.00
7614;BME280;3848;42.016;23.098;2023-04-30T05:12:50;96918.34;;;11.58;100.00
7614;BME280;3848;42.016;23.098;2023-04-30T05:15:17;96917.41;;;11.63;100.00
7614;BME280;3848;42.016;23.098;2023-04-30T05:17:43;96929.38;;;11.57;100.00
7614;BME280;3848;42.016;23.098;2023-04-30T05:20:11;96929.44;;;11.54;100.00
7614;BME280;3848;42.016;23.098;2023-04-30T05:22:38;96923.38;;;11.61;100.00
7614;BME280;3848;42.016;23.098;2023-04-30T05:25:07;96919.91;;;11.66;100.00
7614;BME280;3848;42.016;23.098;2023-04-30T05:27:34;96928.25;;;11.75;100.00
7614;BME280;3848;42.016;23.098;2023-04-30T05:30:01;96909.63;;;11.73;100.00
7614;BME280;3848;42.016;23.098;2023-04-30T05:32:28;96931.38;;;11.94;100.00
7614;BME280;3848;42.016;23.098;2023-04-30T05:34:55;96930.25;;;12.10;100.00
7614;BME280;3848;42.016;23.098;2023-04-30T05:37:22;96929.22;;;12.20;100.00
7614;BME280;3848;42.016;23.098;2023-04-30T05:39:48;96929.09;;;12.27;100.00
7614;BME280;3848;42.016;23.098;2023-04-30T05:42:17;96930.66;;;12.35;100.00
7614;BME280;3848;42.016;23.098;2023-04-30T05:44:44;96938.16;;;12.43;100.00
7614;BME280;3848;42.016;23.098;2023-04-30T05:47:11;96935.47;;;12.49;100.00
7614;BME280;3848;42.016;23.098;2023-04-30T05:49:37;96938.78;;;12.56;100.00
7614;BME280;3848;42.016;23.098;2023-04-30T05:52:04;96938.69;;;12.60;100.00
7614;BME280;3848;42.016;23.098;2023-04-30T05:54:31;96933.44;;;12.66;100.00
7614;BME280;3848;42.016;23.098;2023-04-30T05:56:58;96936.78;;;12.71;100.00
7614;BME280;3848;42.016;23.098;2023-04-30T05:59:26;96937.50;;;12.76;100.00
7614;BME280;3848;42.016;23.098;2023-04-30T06:01:53;96935.03;;;12.73;100.00
7614;BME280;3848;42.016;23.098;2023-04-30T06:04:19;96936.56;;;12.80;100.00
7614;BME280;3848;42.016;23.098;2023-04-30T06:06:46;96936.38;;;12.90;100.00
7614;BME280;3848;42.016;23.098;2023-04-30T06:09:13;96937.03;;;12.99;100.00
7614;BME280;3848;42.016;23.098;2023-04-30T06:11:40;96936.84;;;13.08;100.00
7614;BME280;3848;42.016;23.098;2023-04-30T06:14:08;96918.91;;;13.13;100.00
7614;BME280;3848;42.016;23.098;2023-04-30T06:16:37;96945.75;;;13.31;100.00
7614;BME280;3848;42.016;23.098;2023-04-30T06:19:04;96940.59;;;13.32;100.00
7614;BME280;3848;42.016;23.098;2023-04-30T06:21:30;96931.16;;;13.37;100.00
7614;BME280;3848;42.016;23.098;2023-04-30T06:23:57;96930.06;;;13.48;100.00
7614;BME280;3848;42.016;23.098;2023-04-30T06:26:24;96928.22;;;13.53;100.00
7614;BME280;3848;42.016;23.098;2023-04-30T06:28:51;96923.63;;;13.68;100.00
7614;BME280;3848;42.016;23.098;2023-04-30T06:31:17;96932.75;;;13.79;100.00
7614;BME280;3848;42.016;23.098;2023-04-30T06:33:46;96930.84;;;13.87;100.00
7614;BME280;3848;42.016;23.098;2023-04-30T06:36:12;96931.56;;;13.92;100.00
7614;BME280;3848;42.016;23.098;2023-04-30T06:38:39;96922.13;;;13.95;100.00
7614;BME280;3848;42.016;23.098;2023-04-30T06:41:06;96917.88;;;13.94;100.00
7614;BME280;3848;42.016;23.098;2023-04-30T06:43:33;96913.69;;;13.92;100.00
7614;BME280;3848;42.016;23.098;2023-04-30T06:46:00;96892.41;;;13.91;100.00
7614;BME280;3848;42.016;23.098;2023-04-30T06:48:28;96916.34;;;14.21;100.00
7614;BME280;3848;42.016;23.098;2023-04-30T06:50:56;96911.69;;;14.35;100.00
7614;BME280;3848;42.016;23.098;2023-04-30T06:53:23;96909.59;;;14.51;100.00
7614;BME280;3848;42.016;23.098;2023-04-30T06:55:50;96907.69;;;14.59;100.00
7614;BME280;3848;42.016;23.098;2023-04-30T06:58:17;96899.72;;;14.70;100.00
7614;BME280;3848;42.016;23.098;2023-04-30T07:00:44;96898.34;;;14.88;100.00
7614;BME280;3848;42.016;23.098;2023-04-30T07:03:11;96882.41;;;14.80;100.00
7614;BME280;3848;42.016;23.098;2023-04-30T07:05:38;96844.47;;;14.64;100.00
7614;BME280;3848;42.016;23.098;2023-04-30T07:08:07;96905.50;;;15.06;100.00
7614;BME280;3848;42.016;23.098;2023-04-30T07:10:34;96887.63;;;15.05;100.00
7614;BME280;3848;42.016;23.098;2023-04-30T07:13:00;96898.16;;;15.23;100.00
7614;BME280;3848;42.016;23.098;2023-04-30T07:15:27;96898.66;;;15.35;100.00
7614;BME280;3848;42.016;23.098;2023-04-30T07:17:54;96904.19;;;15.49;100.00
7614;BME280;3848;42.016;23.098;2023-04-30T07:20:21;96902.91;;;15.64;100.00
7614;BME280;3848;42.016;23.098;2023-04-30T07:22:47;96902.31;;;15.82;100.00
7614;BME280;3848;42.016;23.098;2023-04-30T07:25:16;96907.16;;;15.91;100.00
7614;BME280;3848;42.016;23.098;2023-04-30T07:27:43;96907.19;;;15.90;100.00
7614;BME280;3848;42.016;23.098;2023-04-30T07:30:10;96902.84;;;15.92;100.00
7614;BME280;3848;42.016;23.098;2023-04-30T07:32:37;96905.81;;;16.06;100.00
7614;BME280;3848;42.016;23.098;2023-04-30T07:35:05;96901.81;;;16.22;100.00
7614;BME280;3848;42.016;23.098;2023-04-30T07:37:32;96883.19;;;16.17;100.00
7614;BME280;3848;42.016;23.098;2023-04-30T07:39:59;96855.63;;;15.99;100.00
7614;BME280;3848;42.016;23.098;2023-04-30T07:42:27;96908.09;;;16.38;100.00
7614;BME280;3848;42.016;23.098;2023-04-30T07:44:54;96907.75;;;16.49;99.67
7614;BME280;3848;42.016;23.098;2023-04-30T07:47:21;96913.53;;;16.54;93.75
7614;BME280;3848;42.016;23.098;2023-04-30T07:49:48;96906.28;;;16.67;96.46
7614;BME280;3848;42.016;23.098;2023-04-30T07:52:15;96901.41;;;16.83;97.04
7614;BME280;3848;42.016;23.098;2023-04-30T07:54:42;96897.91;;;16.85;92.92
7614;BME280;3848;42.016;23.098;2023-04-30T07:57:09;96900.03;;;16.97;99.50
7614;BME280;3848;42.016;23.098;2023-04-30T07:59:37;96901.91;;;17.16;93.12
7614;BME280;3848;42.016;23.098;2023-04-30T08:02:04;96899.66;;;17.30;84.94
7614;BME280;3848;42.016;23.098;2023-04-30T08:04:30;96897.94;;;17.30;81.35
7614;BME280;3848;42.016;23.098;2023-04-30T08:06:57;96898.63;;;17.34;84.29
7614;BME280;3848;42.016;23.098;2023-04-30T08:09:24;96886.91;;;17.49;84.85
7614;BME280;3848;42.016;23.098;2023-04-30T08:11:51;96886.94;;;17.71;81.39
7614;BME280;3848;42.016;23.098;2023-04-30T08:14:17;96890.41;;;17.90;79.19
7614;BME280;3848;42.016;23.098;2023-04-30T08:16:45;96883.16;;;18.00;77.67
7614;BME280;3848;42.016;23.098;2023-04-30T08:19:12;96866.34;;;18.13;82.56
7614;BME280;3848;42.016;23.098;2023-04-30T08:21:39;96875.50;;;18.39;77.12
7614;BME280;3848;42.016;23.098;2023-04-30T08:24:06;96875.34;;;18.62;76.34
7614;BME280;3848;42.016;23.098;2023-04-30T08:26:33;96871.47;;;18.72;74.41
7614;BME280;3848;42.016;23.098;2023-04-30T08:28:59;96875.94;;;18.87;72.16
7614;BME280;3848;42.016;23.098;2023-04-30T08:31:26;96856.31;;;19.04;75.61
7614;BME280;3848;42.016;23.098;2023-04-30T08:33:54;96861.56;;;19.38;73.96
7614;BME280;3848;42.016;23.098;2023-04-30T08:36:21;96867.94;;;19.67;73.85
7614;BME280;3848;42.016;23.098;2023-04-30T08:38:48;96855.66;;;19.90;66.39
7614;BME280;3848;42.016;23.098;2023-04-30T08:41:15;96853.59;;;20.14;64.91
7614;BME280;3848;42.016;23.098;2023-04-30T08:43:42;96852.81;;;20.46;65.71
7614;BME280;3848;42.016;23.098;2023-04-30T08:46:11;96846.19;;;20.74;62.54
7614;BME280;3848;42.016;23.098;2023-04-30T08:48:39;96844.28;;;20.93;59.98
7614;BME280;3848;42.016;23.098;2023-04-30T08:51:08;96839.69;;;20.98;59.33
7614;BME280;3848;42.016;23.098;2023-04-30T08:53:36;96837.53;;;20.90;57.83
7614;BME280;3848;42.016;23.098;2023-04-30T08:56:04;96833.97;;;20.93;58.62
7614;BME280;3848;42.016;23.098;2023-04-30T08:58:31;96817.97;;;20.86;58.94
7614;BME280;3848;42.016;23.098;2023-04-30T09:00:58;96834.78;;;20.93;60.46
7614;BME280;3848;42.016;23.098;2023-04-30T09:03:25;96836.44;;;20.94;60.39
7614;BME280;3848;42.016;23.098;2023-04-30T09:05:53;96840.28;;;20.87;58.52
7614;BME280;3848;42.016;23.098;2023-04-30T09:08:43;96844.72;;;20.85;56.98
7614;BME280;3848;42.016;23.098;2023-04-30T09:11:21;96844.69;;;20.69;55.11
7614;BME280;3848;42.016;23.098;2023-04-30T09:13:49;96813.84;;;20.51;57.59
7614;BME280;3848;42.016;23.098;2023-04-30T09:16:17;96840.28;;;20.87;56.92
7614;BME280;3848;42.016;23.098;2023-04-30T09:18:44;96833.53;;;21.00;55.86
7614;BME280;3848;42.016;23.098;2023-04-30T09:21:12;96831.88;;;21.15;55.05
7614;BME280;3848;42.016;23.098;2023-04-30T09:23:55;96824.84;;;21.17;55.35
7614;BME280;3848;42.016;23.098;2023-04-30T09:26:26;96813.03;;;21.13;55.58
7614;BME280;3848;42.016;23.098;2023-04-30T09:28:54;96822.47;;;21.30;52.82
7614;BME280;3848;42.016;23.098;2023-04-30T09:31:22;96821.91;;;21.25;54.13
7614;BME280;3848;42.016;23.098;2023-04-30T09:33:48;96811.38;;;21.28;54.47
7614;BME280;3848;42.016;23.098;2023-04-30T09:36:15;96814.81;;;21.28;54.16
7614;BME280;3848;42.016;23.098;2023-04-30T09:38:42;96822.09;;;21.20;54.50
7614;BME280;3848;42.016;23.098;2023-04-30T09:41:22;96808.59;;;21.15;54.07
7614;BME280;3848;42.016;23.098;2023-04-30T09:43:50;96823.50;;;21.57;55.23
7614;BME280;3848;42.016;23.098;2023-04-30T09:46:18;96802.25;;;21.97;53.67
7614;BME280;3848;42.016;23.098;2023-04-30T09:48:46;96813.94;;;22.18;50.96
7614;BME280;3848;42.016;23.098;2023-04-30T09:51:13;96785.47;;;22.18;50.01
7614;BME280;3848;42.016;23.098;2023-04-30T09:53:42;96816.16;;;22.67;51.34
7614;BME280;3848;42.016;23.098;2023-04-30T09:56:10;96803.13;;;23.09;48.45
7614;BME280;3848;42.016;23.098;2023-04-30T09:58:43;96799.94;;;23.60;50.39
7614;BME280;3848;42.016;23.098;2023-04-30T10:01:10;96781.81;;;24.23;49.40
7614;BME280;3848;42.016;23.098;2023-04-30T10:03:38;96801.13;;;24.45;47.25
7614;BME280;3848;42.016;23.098;2023-04-30T10:06:06;96786.81;;;24.39;44.17
7614;BME280;3848;42.016;23.098;2023-04-30T10:08:39;96790.94;;;24.54;46.74
7614;BME280;3848;42.016;23.098;2023-04-30T10:11:08;96787.53;;;24.78;48.50
7614;BME280;3848;42.016;23.098;2023-04-30T10:13:42;96785.06;;;25.37;46.02
7614;BME280;3848;42.016;23.098;2023-04-30T10:16:14;96787.13;;;25.44;44.41
7614;BME280;3848;42.016;23.098;2023-04-30T10:18:47;96779.56;;;25.41;43.22
7614;BME280;3848;42.016;23.098;2023-04-30T10:21:17;96782.94;;;25.66;43.59
7614;BME280;3848;42.016;23.098;2023-04-30T10:23:47;96783.50;;;25.93;41.27
7614;BME280;3848;42.016;23.098;2023-04-30T10:26:14;96783.22;;;25.74;42.05
7614;BME280;3848;42.016;23.098;2023-04-30T10:28:43;96787.25;;;25.54;42.77
7614;BME280;3848;42.016;23.098;2023-04-30T10:31:11;96776.75;;;25.20;41.15
7614;BME280;3848;42.016;23.098;2023-04-30T10:33:45;96772.97;;;24.88;40.46
7614;BME280;3848;42.016;23.098;2023-04-30T10:36:22;96773.28;;;24.47;42.24
7614;BME280;3848;42.016;23.098;2023-04-30T10:38:51;96774.00;;;24.61;43.71
7614;BME280;3848;42.016;23.098;2023-04-30T10:41:19;96770.38;;;25.01;41.03
7614;BME280;3848;42.016;23.098;2023-04-30T10:43:47;96767.78;;;25.36;41.23
7614;BME280;3848;42.016;23.098;2023-04-30T10:46:22;96758.69;;;25.65;40.90
7614;BME280;3848;42.016;23.098;2023-04-30T10:48:49;96761.09;;;25.68;39.60
7614;BME280;3848;42.016;23.098;2023-04-30T10:51:19;96764.09;;;25.27;40.42
7614;BME280;3848;42.016;23.098;2023-04-30T10:53:48;96770.88;;;25.06;41.75
7614;BME280;3848;42.016;23.098;2023-04-30T10:56:29;96771.19;;;25.01;42.50
7614;BME280;3848;42.016;23.098;2023-04-30T10:58:59;96768.84;;;25.33;43.03
7614;BME280;3848;42.016;23.098;2023-04-30T11:01:26;96765.47;;;25.79;41.83
7614;BME280;3848;42.016;23.098;2023-04-30T11:04:04;96762.81;;;26.14;40.03
7614;BME280;3848;42.016;23.098;2023-04-30T11:06:53;96769.63;;;25.81;41.01
7614;BME280;3848;42.016;23.098;2023-04-30T11:09:34;96774.06;;;25.33;42.07
7614;BME280;3848;42.016;23.098;2023-04-30T11:12:02;96784.44;;;24.73;44.27
7614;BME280;3848;42.016;23.098;2023-04-30T11:14:32;96791.06;;;24.40;45.13
7614;BME280;3848;42.016;23.098;2023-04-30T11:16:59;96785.34;;;24.10;45.22
7614;BME280;3848;42.016;23.098;2023-04-30T11:19:27;96795.94;;;23.54;46.95
7614;BME280;3848;42.016;23.098;2023-04-30T11:22:16;96798.38;;;23.57;47.21
7614;BME280;3848;42.016;23.098;2023-04-30T11:24:53;96799.34;;;23.15;47.10
7614;BME280;3848;42.016;23.098;2023-04-30T11:27:21;96798.94;;;22.94;47.53
7614;BME280;3848;42.016;23.098;2023-04-30T11:29:51;96809.06;;;22.56;48.42
7614;BME280;3848;42.016;23.098;2023-04-30T11:32:18;96802.03;;;22.30;49.51
7614;BME280;3848;42.016;23.098;2023-04-30T11:34:45;96794.16;;;22.17;49.40
7614;BME280;3848;42.016;23.098;2023-04-30T11:37:19;96795.94;;;22.31;50.46
7614;BME280;3848;42.016;23.098;2023-04-30T11:39:46;96788.44;;;22.12;49.47
7614;BME280;3848;42.016;23.098;2023-04-30T11:42:15;96786.75;;;22.25;49.69
7614;BME280;3848;42.016;23.098;2023-04-30T11:44:43;96780.66;;;22.26;49.05
7614;BME280;3848;42.016;23.098;2023-04-30T11:47:11;96776.50;;;22.52;48.58
7614;BME280;3848;42.016;23.098;2023-04-30T11:49:38;96774.59;;;22.68;48.78
7614;BME280;3848;42.016;23.098;2023-04-30T11:52:05;96775.34;;;22.85;47.74
7614;BME280;3848;42.016;23.098;2023-04-30T11:54:35;96775.06;;;22.89;47.06
7614;BME280;3848;42.016;23.098;2023-04-30T11:57:02;96775.25;;;22.86;47.43
7614;BME280;3848;42.016;23.098;2023-04-30T11:59:30;96736.22;;;22.75;47.68
7614;BME280;3848;42.016;23.098;2023-04-30T12:01:57;96771.78;;;23.27;48.81
7614;BME280;3848;42.016;23.098;2023-04-30T12:04:25;96764.84;;;23.27;48.12
7614;BME280;3848;42.016;23.098;2023-04-30T12:06:52;96768.81;;;23.33;48.58
7614;BME280;3848;42.016;23.098;2023-04-30T12:09:19;96746.09;;;23.36;49.34
7614;BME280;3848;42.016;23.098;2023-04-30T12:11:46;96755.81;;;23.72;48.31
7614;BME280;3848;42.016;23.098;2023-04-30T12:14:13;96755.84;;;23.98;47.09
7614;BME280;3848;42.016;23.098;2023-04-30T12:16:42;96735.16;;;24.09;46.34
7614;BME280;3848;42.016;23.098;2023-04-30T12:19:14;96752.22;;;24.75;47.55
7614;BME280;3848;42.016;23.098;2023-04-30T12:21:43;96718.63;;;24.48;44.90
7614;BME280;3848;42.016;23.098;2023-04-30T12:24:11;96745.19;;;24.65;41.32
7614;BME280;3848;42.016;23.098;2023-04-30T12:26:39;96740.22;;;24.85;39.92
7614;BME280;3848;42.016;23.098;2023-04-30T12:29:08;96733.03;;;24.89;41.63
7614;BME280;3848;42.016;23.098;2023-04-30T12:31:35;96736.03;;;24.96;42.04
7614;BME280;3848;42.016;23.098;2023-04-30T12:34:03;96738.88;;;25.16;42.97
7614;BME280;3848;42.016;23.098;2023-04-30T12:36:31;96713.09;;;25.60;42.72
7614;BME280;3848;42.016;23.098;2023-04-30T12:39:05;96726.44;;;26.01;40.99
7614;BME280;3848;42.016;23.098;2023-04-30T12:41:35;96705.72;;;26.56;40.98
7614;BME280;3848;42.016;23.098;2023-04-30T12:44:16;96714.47;;;27.20;40.02
7614;BME280;3848;42.016;23.098;2023-04-30T12:46:43;96719.22;;;27.68;39.52
7614;BME280;3848;42.016;23.098;2023-04-30T12:49:10;96716.91;;;28.26;38.82
7614;BME280;3848;42.016;23.098;2023-04-30T12:51:38;96711.13;;;28.53;37.48
7614;BME280;3848;42.016;23.098;2023-04-30T12:54:09;96691.72;;;28.56;37.37
7614;BME280;3848;42.016;23.098;2023-04-30T12:56:36;96700.34;;;28.96;37.02
7614;BME280;3848;42.016;23.098;2023-04-30T12:59:13;96698.25;;;29.29;37.32
7614;BME280;3848;42.016;23.098;2023-04-30T13:01:43;96694.41;;;29.52;36.79
7614;BME280;3848;42.016;23.098;2023-04-30T13:04:10;96684.38;;;29.19;36.09
7614;BME280;3848;42.016;23.098;2023-04-30T13:06:37;96681.19;;;29.25;36.49
7614;BME280;3848;42.016;23.098;2023-04-30T13:09:04;96671.41;;;29.07;36.80
7614;BME280;3848;42.016;23.098;2023-04-30T13:11:32;96675.09;;;29.14;35.44